Time;durP1;ratioP1;P1;durP2;ratioP2;P2;SDS_P1;SDS_P2;PMS_P1;PMS_P2;Temp;Humidity;BMP_temperature;BMP_pressure;BME280_temperature;BME280_humidity;BME280_pressure;Samples;Min_cycle;Max_cycle;Signal;HPM_P1;HPM_P2
2021/11/12 05:55:48;;;;;;;20.60;5.80;;;0.70;99.90;;;;;;5543160;24;20431;-82
2021/11/12 05:58:58;;;;;;;13.25;6.05;;;0.70;99.90;;;;;;4763828;30;20066;-82
2021/11/12 06:01:26;;;;;;;96.55;8.65;;;0.70;99.90;;;;;;4694759;29;20067;-80
2021/11/12 06:04:14;;;;;;;55.00;8.10;;;0.80;99.90;;;;;;4753130;30;20051;-81
2021/11/12 06:07:50;;;;;;;125.20;12.32;;;0.70;99.90;;;;;;4760481;30;20051;-82
2021/11/12 06:11:23;;;;;;;10.82;7.60;;;0.70;99.90;;;;;;4752511;29;20039;-82
2021/11/12 06:19:16;;;;;;;68.53;9.10;;;0.70;99.90;;;;;;4743473;30;20051;-81
2021/11/12 06:22:01;;;;;;;70.85;8.32;;;0.70;99.90;;;;;;4741214;29;20058;-82
2021/11/12 06:24:52;;;;;;;35.80;5.15;;;0.80;99.90;;;;;;4723936;30;20414;-81
2021/11/12 06:27:23;;;;;;;78.10;8.43;;;0.70;99.90;;;;;;4766819;30;20043;-81
2021/11/12 06:29:54;;;;;;;10.43;7.13;;;0.70;99.90;;;;;;4752032;30;20047;-81
2021/11/12 06:32:39;;;;;;;26.98;5.93;;;0.70;99.90;;;;;;4779377;29;20426;-81
2021/11/12 06:35:12;;;;;;;;;;;0.80;99.90;;;;;;4769202;30;20056;-81
2021/11/12 06:37:46;;;;;;;11.60;5.72;;;0.80;99.90;;;;;;4753647;30;19936;-82
2021/11/12 06:40:32;;;;;;;18.40;5.28;;;0.80;99.90;;;;;;4743410;30;20530;-83
2021/11/12 06:53:20;;;;;;;9.98;6.35;;;1.00;99.90;;;;;;4763608;29;20051;-82
2021/11/12 06:56:54;;;;;;;69.72;9.05;;;1.10;99.90;;;;;;4743933;30;20525;-83
2021/11/12 07:00:11;;;;;;;53.30;8.30;;;1.10;99.90;;;;;;4724724;29;20063;-83
2021/11/12 07:02:51;;;;;;;12.98;5.68;;;1.20;99.90;;;;;;4772283;29;20054;-82
2021/11/12 07:11:41;;;;;;;;;;;;;;;;;;;;;
2021/11/12 07:15:08;;;;;;;14.43;5.70;;;1.60;99.90;;;;;;4722518;29;20506;-83
2021/11/12 07:18:30;;;;;;;23.67;6.15;;;1.60;99.90;;;;;;4766464;29;20039;-82
2021/11/12 07:21:33;;;;;;;16.45;5.85;;;1.60;99.90;;;;;;4766170;29;20062;-82
2021/11/12 07:24:14;;;;;;;7.28;6.25;;;1.60;99.90;;;;;;4791325;29;20062;-82
2021/11/12 07:26:50;;;;;;;15.25;6.10;;;1.70;99.90;;;;;;4788185;29;20046;-82
2021/11/12 07:29:29;;;;;;;9.45;5.95;;;1.70;99.90;;;;;;4772825;29;20139;-81
2021/11/12 07:32:01;;;;;;;11.52;6.63;;;1.80;99.90;;;;;;4747103;29;20054;-82
2021/11/12 07:38:24;;;;;;;;;;;;;;;;;;;;;
2021/11/12 07:48:54;;;;;;;15.55;6.13;;;2.10;99.90;;;;;;4789182;29;20043;-82
2021/11/12 07:51:44;;;;;;;10.45;5.25;;;2.10;99.90;;;;;;4755881;30;20410;-82
2021/11/12 07:59:38;;;;;;;88.25;10.48;;;2.20;99.90;;;;;;4650371;30;20068;-82
2021/11/12 08:02:24;;;;;;;62.03;6.70;;;2.30;99.90;;;;;;4721437;30;20516;-81
2021/11/12 08:05:28;;;;;;;72.43;8.32;;;2.20;99.90;;;;;;4700528;30;20078;-82
2021/11/12 08:09:31;;;;;;;66.82;6.60;;;2.20;99.90;;;;;;4699257;30;20650;-82
2021/11/12 08:11:53;;;;;;;29.58;7.10;;;2.30;99.90;;;;;;4692552;30;20049;-82
2021/11/12 08:14:28;;;;;;;9.25;6.90;;;2.40;99.90;;;;;;4716406;30;20522;-82
2021/11/12 08:17:05;;;;;;;;;;;2.50;99.90;;;;;;4711346;30;20072;-82
2021/11/12 08:19:38;;;;;;;12.52;7.80;;;2.60;99.90;;;;;;4700191;30;19931;-83
2021/11/12 08:22:12;;;;;;;10.25;6.13;;;2.70;99.90;;;;;;4714719;30;20057;-82
2021/11/12 08:24:55;;;;;;;;;;;2.80;99.90;;;;;;4753354;30;20067;-83
2021/11/12 08:30:25;;;;;;;7.53;6.78;;;3.00;99.90;;;;;;4776622;29;20758;-83
2021/11/12 08:33:01;;;;;;;25.25;7.70;;;3.00;99.90;;;;;;4756918;30;20422;-82
2021/11/12 08:38:44;;;;;;;18.98;8.25;;;3.00;99.90;;;;;;4752364;30;20075;-83
2021/11/12 08:41:49;;;;;;;10.40;6.68;;;3.20;99.90;;;;;;4753432;30;20047;-81
2021/11/12 08:44:24;;;;;;;27.40;7.63;;;3.10;99.90;;;;;;4769729;30;20048;-84
2021/11/12 08:47:14;;;;;;;30.52;8.52;;;3.20;99.90;;;;;;4786093;29;20542;-83
2021/11/12 08:49:43;;;;;;;21.75;6.70;;;3.10;99.90;;;;;;4752854;30;20115;-85
2021/11/12 08:52:15;;;;;;;26.35;7.22;;;3.10;99.90;;;;;;4738956;30;20051;-83
2021/11/12 08:54:55;;;;;;;55.83;10.80;;;3.10;99.90;;;;;;4780256;29;20051;-84
2021/11/12 08:57:43;;;;;;;18.75;7.25;;;3.20;99.90;;;;;;4772930;29;20063;-84
2021/11/12 09:00:17;;;;;;;24.90;6.63;;;3.20;99.90;;;;;;4783343;29;20517;-84
2021/11/12 09:02:50;;;;;;;42.95;9.90;;;3.30;99.90;;;;;;4785902;29;20055;-83
2021/11/12 09:05:28;;;;;;;44.17;12.40;;;3.30;99.90;;;;;;4785273;29;20465;-85
2021/11/12 09:08:16;;;;;;;24.98;8.20;;;3.30;99.90;;;;;;4768679;30;20059;-84
2021/11/12 09:11:43;;;;;;;21.85;9.75;;;3.30;99.90;;;;;;4751452;30;20043;-86
2021/11/12 09:19:49;;;;;;;;;;;;;;;;;;;;;
2021/11/12 09:23:31;;;;;;;20.67;7.60;;;3.20;99.90;;;;;;4624727;30;20259;-84
2021/11/12 09:25:59;;;;;;;32.85;6.95;;;3.30;99.90;;;;;;4631599;30;20048;-80
2021/11/12 09:28:27;;;;;;;28.02;7.93;;;3.30;99.90;;;;;;4628763;30;20067;-84
2021/11/12 09:31:02;;;;;;;22.95;11.57;;;3.20;99.90;;;;;;4645960;30;20059;-85
2021/11/12 09:33:33;;;;;;;31.02;10.05;;;3.20;99.90;;;;;;4649837;30;20066;-86
2021/11/12 09:36:17;;;;;;;24.38;8.50;;;3.20;99.90;;;;;;4676256;30;20108;-86
2021/11/12 09:39:21;;;;;;;64.03;10.57;;;3.20;99.90;;;;;;4655324;30;20050;-86
2021/11/12 09:42:53;;;;;;;22.92;11.30;;;3.30;99.90;;;;;;4676418;30;20058;-86
2021/11/12 09:46:10;;;;;;;32.67;10.10;;;3.10;99.90;;;;;;4684381;30;20046;-86
2021/11/12 09:49:13;;;;;;;12.48;7.60;;;3.10;99.90;;;;;;4687521;30;20089;-87
2021/11/12 09:52:30;;;;;;;34.30;7.47;;;3.20;99.90;;;;;;4709613;30;20080;-86
2021/11/12 09:55:47;;;;;;;16.45;7.72;;;3.30;99.90;;;;;;4732635;30;20047;-86
2021/11/12 10:03:32;;;;;;;58.75;9.23;;;3.40;99.90;;;;;;4759154;29;20047;-87
2021/11/12 10:08:17;;;;;;;91.07;11.80;;;3.50;99.90;;;;;;4721689;30;20059;-87
2021/11/12 10:17:43;;;;;;;;;;;;;;;;;;;;;
2021/11/12 10:21:16;;;;;;;17.65;5.13;;;3.30;99.90;;;;;;4684969;30;20428;-86
2021/11/12 10:25:08;;;;;;;51.67;10.20;;;3.30;99.90;;;;;;4676256;30;20153;-86
2021/11/12 10:27:39;;;;;;;27.27;9.95;;;3.30;99.90;;;;;;4707233;30;20497;-80
2021/11/12 10:30:12;;;;;;;29.58;6.75;;;3.30;99.90;;;;;;4707327;30;20049;-80
2021/11/12 10:32:41;;;;;;;66.90;12.73;;;3.40;99.90;;;;;;4716408;30;20060;-80
2021/11/12 10:35:20;;;;;;;53.33;11.77;;;3.40;99.90;;;;;;4735372;30;20048;-80
2021/11/12 10:37:48;;;;;;;26.52;10.82;;;3.40;99.90;;;;;;4728465;30;20519;-78
2021/11/12 10:40:20;;;;;;;42.78;7.82;;;3.40;99.90;;;;;;4722794;30;20056;-78
2021/11/12 10:42:54;;;;;;;43.88;7.88;;;3.40;99.90;;;;;;4717218;30;20049;-79
2021/11/12 10:45:36;;;;;;;30.67;10.95;;;3.40;99.90;;;;;;4726791;30;20075;-79
2021/11/12 10:48:08;;;;;;;17.83;9.35;;;3.40;99.90;;;;;;4728180;30;20072;-79
2021/11/12 10:50:40;;;;;;;77.82;18.77;;;3.40;99.90;;;;;;4748466;30;20063;-79
2021/11/12 10:53:12;;;;;;;58.97;8.88;;;3.40;99.90;;;;;;4748153;30;20051;-79
2021/11/12 10:55:43;;;;;;;;;;;3.30;99.90;;;;;;4752046;30;20060;-80
2021/11/12 10:58:12;;;;;;;27.60;5.72;;;3.30;99.90;;;;;;4756316;30;19937;-79
2021/11/12 11:00:46;;;;;;;20.23;6.80;;;3.40;99.90;;;;;;4766915;30;20497;-79
2021/11/12 11:03:20;;;;;;;47.50;6.38;;;3.50;99.90;;;;;;4765662;30;20048;-79
2021/11/12 11:05:59;;;;;;;29.15;9.00;;;3.40;99.90;;;;;;4766897;30;20058;-79
2021/11/12 11:08:30;;;;;;;44.58;7.07;;;3.30;99.90;;;;;;4767059;30;20063;-78
2021/11/12 11:11:02;;;;;;;44.63;10.25;;;3.30;99.90;;;;;;4766141;30;20410;-79
2021/11/12 11:13:42;;;;;;;13.77;6.22;;;3.40;99.90;;;;;;4765433;30;20050;-80
2021/11/12 11:16:18;;;;;;;35.30;8.02;;;3.50;99.90;;;;;;4751069;30;20085;-80
2021/11/12 11:18:56;;;;;;;27.75;8.10;;;3.50;99.90;;;;;;4749602;30;20052;-81
2021/11/12 11:21:25;;;;;;;14.73;6.25;;;3.40;99.90;;;;;;4771454;29;20048;-80
2021/11/12 11:24:07;;;;;;;29.40;7.18;;;3.50;99.90;;;;;;4776819;30;20063;-81
2021/11/12 11:26:43;;;;;;;22.55;8.27;;;3.60;99.90;;;;;;4746313;30;20581;-80
2021/11/12 11:29:17;;;;;;;20.55;6.57;;;3.50;99.90;;;;;;4761820;30;20514;-81
2021/11/12 11:31:45;;;;;;;13.45;6.10;;;3.60;99.90;;;;;;4756816;30;20056;-81
2021/11/12 11:34:13;;;;;;;22.42;6.28;;;3.60;99.90;;;;;;4765939;30;20058;-81
2021/11/12 11:36:45;;;;;;;11.15;6.43;;;3.70;99.90;;;;;;4749926;30;20058;-81
2021/11/12 11:39:14;;;;;;;;;;;3.80;99.90;;;;;;4766090;30;20490;-81
2021/11/12 11:41:48;;;;;;;13.40;5.90;;;4.00;99.90;;;;;;4748673;30;19926;-81
2021/11/12 11:44:19;;;;;;;14.75;7.13;;;4.00;99.90;;;;;;4755063;30;20063;-81
2021/11/12 11:46:54;;;;;;;13.32;6.78;;;3.90;99.90;;;;;;4763962;30;20051;-81
2021/11/12 11:49:27;;;;;;;27.42;9.05;;;3.80;99.90;;;;;;4765585;30;20048;-80
2021/11/12 11:52:04;;;;;;;16.50;9.25;;;3.90;99.90;;;;;;4777439;30;20371;-81
2021/11/12 11:54:48;;;;;;;11.02;7.68;;;3.80;99.90;;;;;;4774991;29;20044;-80
2021/11/12 11:57:23;;;;;;;22.48;10.38;;;3.80;99.90;;;;;;4758121;30;20498;-80
2021/11/12 12:00:20;;;;;;;10.52;7.20;;;3.90;99.90;;;;;;4768178;30;20063;-80
2021/11/12 12:03:08;;;;;;;16.05;8.35;;;4.00;99.90;;;;;;4749721;30;20067;-81
2021/11/12 12:06:15;;;;;;;13.55;8.82;;;4.00;99.90;;;;;;4758978;30;20059;-80
2021/11/12 12:09:05;;;;;;;22.15;7.93;;;4.10;99.90;;;;;;4766112;30;20086;-81
2021/11/12 12:11:52;;;;;;;11.17;9.00;;;4.20;99.90;;;;;;4766597;30;20063;-82
2021/11/12 12:14:36;;;;;;;39.53;7.72;;;4.20;99.90;;;;;;4757215;29;20052;-80
2021/11/12 12:17:26;;;;;;;19.27;9.23;;;4.30;99.90;;;;;;4770081;30;20679;-81
2021/11/12 12:20:05;;;;;;;12.13;7.60;;;4.20;99.90;;;;;;4752434;30;20055;-80
2021/11/12 12:35:19;;;;;;;25.25;8.23;;;4.30;99.90;;;;;;4750703;30;20067;-89
2021/11/12 13:22:05;;;;;;;12.02;7.25;;;4.10;99.90;;;;;;4844502;24;20054;-85
2021/11/12 13:29:43;;;;;;;14.10;9.80;;;3.80;99.90;;;;;;4706656;30;20557;-83
2021/11/12 13:32:26;;;;;;;15.35;9.75;;;3.90;99.90;;;;;;4724619;30;20068;-84
2021/11/12 13:35:21;;;;;;;22.08;11.52;;;3.80;99.90;;;;;;4709917;30;20052;-88
2021/11/12 13:38:20;;;;;;;26.63;10.27;;;3.90;99.90;;;;;;4718264;30;20404;-88
2021/11/12 14:09:20;;;;;;;22.88;7.97;;;3.60;99.90;;;;;;5356177;24;20048;-86
2021/11/12 14:22:13;;;;;;;41.03;12.15;;;3.50;99.90;;;;;;4766448;29;20111;-90
2021/11/12 14:25:30;;;;;;;24.83;9.05;;;3.50;99.90;;;;;;4751415;29;20056;-85
2021/11/12 14:28:36;;;;;;;24.07;11.00;;;3.60;99.90;;;;;;4767699;30;20062;-85
2021/11/12 14:33:49;;;;;;;23.17;13.18;;;3.50;99.90;;;;;;4753349;29;20402;-80
2021/11/12 14:36:38;;;;;;;30.80;9.68;;;3.50;99.90;;;;;;4750136;30;20059;-80
2021/11/12 14:40:08;;;;;;;28.40;10.23;;;3.50;99.90;;;;;;4749334;30;20052;-80
2021/11/12 14:45:07;;;;;;;86.30;15.13;;;3.50;99.90;;;;;;4756473;30;19925;-79
2021/11/12 14:47:50;;;;;;;14.82;9.48;;;3.40;99.90;;;;;;4749932;30;20544;-84
2021/11/12 14:50:27;;;;;;;20.80;10.82;;;3.40;99.90;;;;;;4749265;30;20055;-84
2021/11/12 14:54:15;;;;;;;37.70;10.15;;;3.50;99.90;;;;;;4762176;30;20052;-80
2021/11/12 14:56:30;;;;;;;16.83;10.88;;;3.60;99.90;;;;;;4749352;30;20470;-77
2021/11/12 14:59:01;;;;;;;18.60;10.30;;;3.60;99.90;;;;;;4767065;29;20059;-81
2021/11/12 15:01:33;;;;;;;24.40;10.00;;;3.60;99.90;;;;;;4762886;29;20060;-80
2021/11/12 15:04:01;;;;;;;25.77;9.98;;;3.50;99.90;;;;;;4742240;30;20495;-79
2021/11/12 15:06:29;;;;;;;27.00;11.60;;;3.40;99.90;;;;;;4760035;30;20051;-80
2021/11/12 15:09:07;;;;;;;15.93;10.13;;;3.40;99.90;;;;;;4769769;30;20055;-78
2021/11/12 15:11:37;;;;;;;26.02;8.90;;;3.40;99.90;;;;;;4762425;30;20064;-78
2021/11/12 15:14:09;;;;;;;25.30;11.98;;;3.40;99.90;;;;;;4764399;29;20052;-78
2021/11/12 15:16:57;;;;;;;19.52;9.93;;;3.40;99.90;;;;;;4763197;30;20035;-78
2021/11/12 15:19:25;;;;;;;22.27;9.77;;;3.50;99.90;;;;;;4759962;30;20043;-79
2021/11/12 15:27:25;;;;;;;15.88;9.60;;;3.40;99.90;;;;;;4753945;30;20067;-80
2021/11/12 15:32:27;;;;;;;29.30;10.45;;;3.30;99.90;;;;;;4765772;30;20071;-78
2021/11/12 15:35:01;;;;;;;79.13;13.60;;;3.40;99.90;;;;;;4752953;30;20044;-78
2021/11/12 15:40:49;;;;;;;84.03;15.07;;;3.30;99.90;;;;;;4768109;30;20066;-82
2021/11/12 15:48:23;;;;;;;62.58;15.13;;;3.10;99.90;;;;;;4748254;30;20072;-80
2021/11/12 15:51:13;;;;;;;114.53;19.77;;;3.20;99.90;;;;;;4748839;30;20514;-81
2021/11/12 15:59:04;;;;;;;76.22;19.92;;;3.20;99.90;;;;;;4773170;29;20050;-82
2021/11/12 16:01:50;;;;;;;35.45;9.23;;;3.30;99.90;;;;;;4762944;29;20048;-91
2021/11/12 16:09:28;;;;;;;28.55;13.30;;;3.10;99.90;;;;;;4787267;29;20059;-87
2021/11/12 16:27:24;;;;;;;98.28;16.60;;;3.00;99.90;;;;;;4757644;29;20051;-86
2021/11/12 16:29:53;;;;;;;29.25;10.75;;;3.00;99.90;;;;;;4781786;29;20059;-84
2021/11/12 16:32:39;;;;;;;24.48;9.05;;;3.00;99.90;;;;;;4769639;30;20055;-81
2021/11/12 16:35:10;;;;;;;20.77;10.32;;;3.00;99.90;;;;;;4764226;29;20047;-82
2021/11/12 16:37:39;;;;;;;26.98;8.20;;;3.00;99.90;;;;;;4760411;29;20052;-84
2021/11/12 16:40:28;;;;;;;23.67;8.18;;;3.00;99.90;;;;;;4761827;30;20056;-90
2021/11/12 16:43:39;;;;;;;68.13;11.30;;;3.00;99.90;;;;;;4784516;29;20059;-90
2021/11/12 16:46:09;;;;;;;23.90;12.52;;;2.90;99.90;;;;;;4735910;30;20055;-84
2021/11/12 16:48:50;;;;;;;34.75;9.90;;;2.90;99.90;;;;;;4768935;30;20074;-83
2021/11/12 17:02:32;;;;;;;60.08;13.20;;;2.90;99.90;;;;;;4784184;29;20509;-93
2021/11/12 17:07:45;;;;;;;20.50;10.30;;;2.80;99.90;;;;;;4779769;29;20048;-91
2021/11/12 17:21:17;;;;;;;51.13;13.38;;;3.00;99.90;;;;;;4750225;30;20058;-90
2021/11/12 17:48:49;;;;;;;45.20;13.98;;;3.00;99.90;;;;;;4762974;30;20066;-88
2021/11/12 17:51:35;;;;;;;36.28;12.93;;;3.00;99.90;;;;;;4745604;30;20059;-86
2021/11/12 18:02:29;;;;;;;30.08;16.67;;;3.10;99.90;;;;;;4767284;29;20054;-90
2021/11/12 18:05:15;;;;;;;47.85;13.18;;;3.20;99.90;;;;;;4769091;30;20044;-79
2021/11/12 18:08:35;;;;;;;22.27;9.20;;;3.20;99.90;;;;;;4751421;30;20085;-79
2021/11/12 21:46:25;;;;;;;28.25;6.25;;;2.60;99.90;;;;;;4750373;30;20052;-80
2021/11/12 21:48:51;;;;;;;21.73;6.88;;;2.50;99.90;;;;;;4748763;30;20095;-80
2021/11/12 21:51:27;;;;;;;26.73;8.82;;;2.60;99.90;;;;;;4749673;30;20052;-79
2021/11/12 21:53:59;;;;;;;13.73;7.13;;;2.50;99.90;;;;;;4749991;30;20060;-80
2021/11/12 21:56:28;;;;;;;26.17;8.85;;;2.60;99.90;;;;;;4750495;30;20537;-79
2021/11/12 21:58:58;;;;;;;38.78;9.10;;;2.60;99.90;;;;;;4757032;30;20638;-80
2021/11/12 22:01:27;;;;;;;20.40;8.43;;;2.60;99.90;;;;;;4751226;29;20067;-80
2021/11/12 22:04:02;;;;;;;41.35;11.40;;;2.60;99.90;;;;;;4746915;30;20059;-80
2021/11/12 22:06:30;;;;;;;96.40;14.85;;;2.50;99.90;;;;;;4736966;30;20048;-81
2021/11/12 22:08:57;;;;;;;51.78;11.55;;;2.50;99.90;;;;;;4743434;30;20068;-80
2021/11/12 22:11:28;;;;;;;53.58;9.52;;;2.40;99.90;;;;;;4741187;30;20059;-81
2021/11/12 22:13:56;;;;;;;64.95;14.88;;;2.40;99.90;;;;;;4718738;30;20060;-80
2021/11/12 22:16:24;;;;;;;21.50;8.82;;;2.40;99.90;;;;;;4736213;30;20061;-80
2021/11/12 22:18:51;;;;;;;76.60;11.00;;;2.40;99.90;;;;;;4737869;30;20053;-80
2021/11/12 22:21:20;;;;;;;22.67;7.13;;;2.40;99.90;;;;;;4731906;30;20502;-81
2021/11/12 22:23:48;;;;;;;17.77;7.22;;;2.40;99.90;;;;;;4732592;30;20517;-81
2021/11/12 22:26:17;;;;;;;15.75;7.43;;;2.40;99.90;;;;;;4732022;30;20057;-81
2021/11/12 22:28:44;;;;;;;34.60;8.82;;;2.40;99.90;;;;;;4732188;30;20570;-81
2021/11/12 22:31:15;;;;;;;17.70;9.77;;;2.40;99.90;;;;;;4745378;30;20051;-81
2021/11/12 22:33:43;;;;;;;22.20;6.97;;;2.50;99.90;;;;;;4766734;29;20052;-81
2021/11/12 22:36:13;;;;;;;32.42;10.45;;;2.60;99.90;;;;;;4767802;30;20052;-81
2021/11/12 22:38:42;;;;;;;14.35;7.93;;;2.50;99.90;;;;;;4780985;29;20503;-81
2021/11/12 22:41:09;;;;;;;17.88;8.20;;;2.50;99.90;;;;;;4750886;30;20059;-81
2021/11/12 22:43:38;;;;;;;18.88;7.43;;;2.60;99.90;;;;;;4767206;30;20478;-81
2021/11/12 22:46:06;;;;;;;18.73;6.25;;;2.60;99.90;;;;;;4767138;29;20047;-81
2021/11/12 22:48:35;;;;;;;19.48;10.15;;;2.60;99.90;;;;;;4758060;30;20676;-81
2021/11/12 22:51:03;;;;;;;22.38;8.40;;;2.60;99.90;;;;;;4749031;30;20075;-81
2021/11/12 22:53:31;;;;;;;22.13;7.93;;;2.50;99.90;;;;;;4762621;30;20052;-81
2021/11/12 22:55:59;;;;;;;13.73;7.45;;;2.60;99.90;;;;;;4749592;30;20064;-80
2021/11/12 22:58:27;;;;;;;17.80;7.18;;;2.60;99.90;;;;;;4749064;30;20430;-81
2021/11/12 23:01:03;;;;;;;27.33;10.00;;;2.60;99.90;;;;;;4749197;30;20064;-81
2021/11/12 23:03:31;;;;;;;49.55;8.32;;;2.50;99.90;;;;;;4747356;30;20048;-81
2021/11/12 23:06:03;;;;;;;9.85;7.90;;;2.50;99.90;;;;;;4748966;30;20048;-81
2021/11/12 23:08:34;;;;;;;30.58;8.63;;;2.50;99.90;;;;;;4749470;30;20149;-81
2021/11/12 23:11:02;;;;;;;13.68;5.75;;;2.50;99.90;;;;;;4762427;30;20542;-81
2021/11/12 23:13:31;;;;;;;11.25;6.03;;;2.40;99.90;;;;;;4748475;29;20056;-81
2021/11/12 23:16:02;;;;;;;20.67;6.63;;;2.50;99.90;;;;;;4748604;30;20075;-81
2021/11/12 23:18:31;;;;;;;21.00;6.57;;;2.40;99.90;;;;;;4748298;30;20052;-81
2021/11/12 23:20:58;;;;;;;10.68;6.68;;;2.30;99.90;;;;;;4749146;30;20066;-81
2021/11/12 23:23:27;;;;;;;21.48;5.72;;;2.30;99.90;;;;;;4748928;30;20052;-81
2021/11/12 23:25:55;;;;;;;12.20;7.55;;;2.40;99.90;;;;;;4748699;30;20048;-80
2021/11/12 23:28:23;;;;;;;12.00;6.45;;;2.30;99.90;;;;;;4749194;30;20048;-81
2021/11/12 23:31:10;;;;;;;8.07;6.30;;;2.40;99.90;;;;;;4759625;30;20379;-81
2021/11/12 23:34:14;;;;;;;16.27;9.82;;;2.30;99.90;;;;;;4735557;30;20310;-81
2021/11/12 23:36:42;;;;;;;10.48;7.30;;;2.30;99.90;;;;;;4749848;30;20056;-80
2021/11/12 23:39:10;;;;;;;21.13;7.22;;;2.30;99.90;;;;;;4748884;30;20060;-80
2021/11/12 23:41:38;;;;;;;9.35;6.65;;;2.30;99.90;;;;;;4759330;29;20058;-80
2021/11/12 23:44:06;;;;;;;8.15;5.07;;;2.30;99.90;;;;;;4734876;30;20058;-81
2021/11/12 23:46:34;;;;;;;8.23;6.28;;;2.20;99.90;;;;;;4732711;30;20048;-81
2021/11/12 23:49:01;;;;;;;11.02;7.57;;;2.20;99.90;;;;;;4748728;30;20410;-81
2021/11/12 23:51:29;;;;;;;11.38;9.05;;;2.10;99.90;;;;;;4748399;30;20078;-81
2021/11/12 23:53:59;;;;;;;10.20;8.02;;;2.10;99.90;;;;;;4748847;30;20048;-81
2021/11/12 23:56:30;;;;;;;19.30;8.98;;;2.00;99.90;;;;;;4733309;30;20060;-81
2021/11/12 23:58:58;;;;;;;41.05;12.85;;;2.00;99.90;;;;;;4748877;30;20056;-81
